Time;durP1;ratioP1;P1;durP2;ratioP2;P2;SDS_P1;SDS_P2;PMS_P1;PMS_P2;Temp;Humidity;BMP_temperature;BMP_pressure;BME280_temperature;BME280_humidity;BME280_pressure;Samples;Min_cycle;Max_cycle;Signal;HPM_P1;HPM_P2
2021/11/09 00:00:29;;;;;;;23.08;8.70;;;2.60;80.80;;;;;;5136614;27;20031;-78
2021/11/09 00:02:55;;;;;;;14.43;8.25;;;2.50;81.00;;;;;;5136681;27;20019;-79
2021/11/09 00:05:24;;;;;;;17.88;7.60;;;2.50;80.70;;;;;;5136552;27;20023;-78
2021/11/09 00:07:53;;;;;;;20.70;7.75;;;2.50;80.10;;;;;;5136492;27;20567;-78
2021/11/09 00:10:20;;;;;;;19.13;7.80;;;2.50;79.30;;;;;;5136312;27;20042;-75
2021/11/09 00:12:58;;;;;;;17.20;7.45;;;2.50;79.10;;;;;;5136386;27;20027;-75
2021/11/09 00:15:24;;;;;;;21.50;9.48;;;2.50;78.80;;;;;;5136377;27;20011;-75
2021/11/09 00:17:53;;;;;;;27.58;9.90;;;2.40;79.20;;;;;;5117988;27;20382;-75
2021/11/09 00:20:22;;;;;;;25.25;8.00;;;2.40;80.50;;;;;;5136286;27;20015;-76
2021/11/09 00:22:48;;;;;;;26.85;7.88;;;2.40;83.10;;;;;;5136271;27;20383;-76
2021/11/09 00:25:16;;;;;;;22.48;7.75;;;2.40;84.20;;;;;;5136170;27;20102;-76
2021/11/09 00:27:42;;;;;;;20.35;7.13;;;2.40;84.60;;;;;;5136238;27;20064;-77
2021/11/09 00:30:10;;;;;;;25.08;7.75;;;2.40;84.50;;;;;;5135854;27;20411;-76
2021/11/09 00:32:37;;;;;;;11.23;6.13;;;2.50;84.40;;;;;;5136042;27;20035;-78
2021/11/09 00:35:07;;;;;;;15.75;7.45;;;2.60;83.80;;;;;;5136046;27;20118;-77
2021/11/09 00:37:32;;;;;;;17.40;8.30;;;2.50;82.80;;;;;;5135969;27;20023;-79
2021/11/09 00:39:58;;;;;;;20.88;8.45;;;2.50;82.00;;;;;;5135985;27;20026;-77
2021/11/09 00:42:24;;;;;;;19.88;8.68;;;2.50;81.70;;;;;;5135894;27;20027;-77
2021/11/09 00:44:49;;;;;;;19.33;7.85;;;2.40;80.60;;;;;;5135849;27;20094;-77
2021/11/09 00:47:15;;;;;;;19.38;8.13;;;2.40;80.30;;;;;;5135656;27;20075;-77
2021/11/09 00:49:41;;;;;;;20.05;9.18;;;2.40;80.00;;;;;;5135762;27;20103;-76
2021/11/09 00:52:07;;;;;;;22.15;10.05;;;2.40;79.50;;;;;;5135655;27;20034;-77
2021/11/09 00:54:36;;;;;;;21.38;11.65;;;2.30;79.30;;;;;;5135607;27;20023;-76
2021/11/09 00:57:03;;;;;;;24.85;11.38;;;2.30;78.70;;;;;;5135725;27;20048;-76
2021/11/09 00:59:29;;;;;;;24.42;11.32;;;2.20;78.40;;;;;;5135489;27;20031;-77
2021/11/09 01:01:55;;;;;;;25.50;11.38;;;2.20;78.20;;;;;;5135560;27;20039;-77
2021/11/09 01:04:21;;;;;;;26.20;12.90;;;2.10;78.40;;;;;;5135345;27;20098;-77
2021/11/09 01:06:46;;;;;;;25.80;12.65;;;2.00;78.30;;;;;;5135389;27;20050;-78
2021/11/09 01:09:12;;;;;;;24.63;11.95;;;2.00;78.40;;;;;;5135444;27;20095;-79
2021/11/09 01:11:39;;;;;;;23.58;12.15;;;2.00;78.50;;;;;;5135238;27;20130;-78
2021/11/09 01:14:06;;;;;;;21.88;11.55;;;2.00;78.70;;;;;;5135396;27;20095;-77
2021/11/09 01:16:32;;;;;;;22.65;10.93;;;2.00;78.80;;;;;;5116695;27;20023;-77
2021/11/09 01:19:03;;;;;;;25.42;11.38;;;2.00;78.70;;;;;;5135130;27;20045;-77
2021/11/09 01:21:28;;;;;;;22.25;11.45;;;2.00;78.50;;;;;;5135142;27;20106;-77
2021/11/09 01:23:54;;;;;;;17.50;10.20;;;2.00;78.30;;;;;;5135144;27;20078;-77
2021/11/09 01:26:21;;;;;;;21.50;9.88;;;2.00;78.20;;;;;;5134980;27;20019;-76
2021/11/09 01:28:50;;;;;;;19.83;9.45;;;2.00;78.10;;;;;;5134926;27;20020;-77
2021/11/09 01:31:16;;;;;;;22.13;9.40;;;1.90;78.10;;;;;;5134556;27;20161;-77
2021/11/09 01:33:43;;;;;;;17.02;8.60;;;1.90;78.30;;;;;;5134733;27;20460;-77
2021/11/09 01:36:10;;;;;;;17.27;8.65;;;1.90;78.60;;;;;;5134785;27;20403;-76
2021/11/09 01:38:36;;;;;;;15.75;8.85;;;1.90;78.60;;;;;;5134752;27;20027;-76
2021/11/09 01:41:04;;;;;;;14.65;7.85;;;1.80;78.60;;;;;;5134290;27;20022;-76
2021/11/09 01:43:31;;;;;;;16.17;8.23;;;1.80;78.70;;;;;;5134591;27;20098;-76
2021/11/09 01:45:57;;;;;;;18.75;7.82;;;1.80;78.80;;;;;;5134537;27;20045;-77
2021/11/09 01:48:23;;;;;;;16.55;7.68;;;1.90;78.70;;;;;;5134562;27;20035;-77
2021/11/09 01:50:56;;;;;;;17.60;7.03;;;1.80;78.60;;;;;;5134467;27;20046;-76
2021/11/09 01:53:22;;;;;;;23.85;8.30;;;1.80;78.70;;;;;;5134442;27;20024;-75
2021/11/09 01:55:49;;;;;;;16.50;7.38;;;1.80;78.50;;;;;;5134469;27;20030;-75
2021/11/09 01:58:16;;;;;;;15.57;7.85;;;1.80;78.40;;;;;;5134464;27;20421;-75
2021/11/09 02:00:48;;;;;;;14.75;7.55;;;1.70;78.80;;;;;;5134351;27;20027;-75
2021/11/09 02:03:13;;;;;;;16.95;6.93;;;1.70;79.00;;;;;;5134401;27;20019;-76
2021/11/09 02:05:42;;;;;;;14.75;7.15;;;1.70;78.90;;;;;;5134236;27;20035;-76
2021/11/09 02:08:08;;;;;;;14.32;7.45;;;1.70;79.00;;;;;;5134294;27;20024;-76
2021/11/09 02:10:36;;;;;;;14.45;7.55;;;1.60;78.90;;;;;;5134049;27;20038;-75
2021/11/09 02:13:04;;;;;;;13.30;6.28;;;1.60;79.10;;;;;;5134280;27;20023;-75
2021/11/09 02:15:32;;;;;;;19.05;7.53;;;1.60;79.10;;;;;;5134234;27;20031;-77
2021/11/09 02:17:58;;;;;;;18.45;7.68;;;1.60;78.90;;;;;;5134257;27;20019;-77
2021/11/09 02:20:26;;;;;;;17.95;7.90;;;1.50;79.20;;;;;;5134066;27;20043;-76
2021/11/09 02:22:53;;;;;;;16.83;7.63;;;1.50;78.80;;;;;;5134155;27;20047;-77
2021/11/09 02:25:20;;;;;;;14.73;7.40;;;1.30;79.00;;;;;;5134038;27;20151;-76
2021/11/09 02:27:47;;;;;;;17.60;7.25;;;1.30;79.10;;;;;;5115701;28;20042;-75
2021/11/09 02:30:15;;;;;;;15.45;7.72;;;1.30;79.10;;;;;;5133865;27;20502;-78
2021/11/09 02:32:41;;;;;;;15.38;7.57;;;1.30;79.20;;;;;;5133981;27;20031;-77
2021/11/09 02:35:08;;;;;;;17.08;8.02;;;1.30;79.30;;;;;;5134026;27;20130;-78
2021/11/09 02:37:34;;;;;;;21.75;8.35;;;1.30;79.30;;;;;;5133915;27;20102;-78
2021/11/09 02:40:00;;;;;;;19.35;7.60;;;1.30;79.40;;;;;;5134118;27;20043;-76
2021/11/09 02:42:36;;;;;;;15.40;7.82;;;1.30;79.30;;;;;;5133921;27;20019;-78
2021/11/09 02:45:11;;;;;;;17.35;7.32;;;1.30;79.50;;;;;;5134077;27;20020;-78
2021/11/09 02:47:45;;;;;;;20.92;9.13;;;1.30;79.70;;;;;;5133938;27;20091;-78
2021/11/09 02:50:12;;;;;;;16.70;8.40;;;1.30;79.50;;;;;;5134003;27;20076;-79
2021/11/09 02:52:46;;;;;;;15.35;7.35;;;1.00;79.50;;;;;;5134853;27;20471;-78
2021/11/09 02:55:13;;;;;;;15.95;8.00;;;0.90;80.10;;;;;;5138108;27;20168;-79
2021/11/09 02:57:47;;;;;;;16.33;8.15;;;1.00;80.80;;;;;;5138028;27;20023;-78
2021/11/09 03:02:49;;;;;;;18.33;7.72;;;1.00;81.10;;;;;;5137968;27;20365;-76
2021/11/09 03:10:39;;;;;;;19.38;8.35;;;1.10;81.40;;;;;;5137840;27;20030;-79
2021/11/09 03:13:02;;;;;;;19.40;8.23;;;1.20;81.20;;;;;;5137137;27;20039;-80
2021/11/09 03:15:30;;;;;;;18.98;8.68;;;1.20;80.80;;;;;;5137600;27;20026;-78
2021/11/09 03:18:01;;;;;;;15.45;7.65;;;1.20;80.40;;;;;;5137741;27;20023;-78
2021/11/09 03:20:35;;;;;;;17.20;7.38;;;1.20;80.20;;;;;;5137626;27;20020;-78
2021/11/09 03:45:02;;;;;;;12.55;6.53;;;1.30;79.20;;;;;;5137488;27;20050;-75
2021/11/09 03:47:26;;;;;;;13.60;7.13;;;1.30;79.10;;;;;;5136477;27;20034;-74
2021/11/09 03:49:53;;;;;;;14.30;6.80;;;1.30;78.80;;;;;;5137006;27;20110;-76
2021/11/09 03:52:22;;;;;;;17.63;6.90;;;1.20;78.70;;;;;;5136665;27;20529;-76
2021/11/09 03:54:54;;;;;;;20.42;7.85;;;1.20;78.70;;;;;;5136968;27;20463;-76
2021/11/09 03:57:29;;;;;;;15.45;8.40;;;1.30;78.80;;;;;;5136849;27;20027;-77
2021/11/09 04:04:57;;;;;;;17.95;7.47;;;1.10;77.60;;;;;;5136217;27;20023;-77
2021/11/09 04:07:39;;;;;;;16.02;7.22;;;1.10;77.80;;;;;;5118204;27;20030;-79
2021/11/09 04:18:15;;;;;;;16.10;8.10;;;1.00;78.10;;;;;;5136584;27;20046;-75
2021/11/09 04:42:58;;;;;;;18.00;7.88;;;0.80;77.90;;;;;;5135958;27;20027;-74
2021/11/09 04:50:10;;;;;;;17.42;7.43;;;0.70;77.80;;;;;;5136124;27;20054;-77
2021/11/09 04:52:43;;;;;;;16.80;7.45;;;0.80;78.60;;;;;;5135400;27;20039;-76
2021/11/09 05:09:09;;;;;;;;;;;0.70;78.20;;;;;;5093636;27;20035;-76
2021/11/09 05:11:37;;;;;;;16.30;7.95;;;0.70;78.10;;;;;;5135186;27;19911;-76
2021/11/09 05:14:04;;;;;;;17.20;7.90;;;0.80;78.00;;;;;;5116843;27;20083;-76
2021/11/09 05:16:30;;;;;;;19.38;7.30;;;0.70;77.60;;;;;;5134433;27;20019;-76
2021/11/09 05:18:55;;;;;;;18.45;7.57;;;0.70;77.60;;;;;;5135504;27;20022;-77
2021/11/09 05:21:21;;;;;;;15.05;7.25;;;0.70;77.80;;;;;;5134897;27;20022;-78
2021/11/09 05:23:46;;;;;;;18.60;8.68;;;0.70;77.80;;;;;;5160550;27;20035;-79
2021/11/09 05:26:12;;;;;;;17.08;8.20;;;0.60;77.50;;;;;;5144085;27;20039;-77
2021/11/09 05:28:38;;;;;;;19.60;8.50;;;0.40;77.90;;;;;;5135307;27;20015;-77
2021/11/09 05:31:04;;;;;;;16.30;8.13;;;0.40;78.10;;;;;;5116141;27;20039;-77
2021/11/09 05:33:32;;;;;;;17.50;8.10;;;0.20;78.50;;;;;;5135201;27;20028;-77
2021/11/09 05:35:58;;;;;;;20.60;7.22;;;0.10;79.40;;;;;;5135170;27;20019;-78
2021/11/09 05:38:28;;;;;;;15.75;8.15;;;0.10;79.50;;;;;;5134921;27;20029;-77
2021/11/09 05:41:05;;;;;;;16.98;7.85;;;0.00;79.50;;;;;;5134805;27;20023;-77
2021/11/09 05:43:31;;;;;;;17.60;7.80;;;0.10;79.80;;;;;;5134821;27;20027;-78
2021/11/09 05:45:56;;;;;;;22.15;8.70;;;0.20;79.80;;;;;;5134893;27;20117;-78
2021/11/09 05:48:22;;;;;;;18.75;8.75;;;0.20;79.70;;;;;;5134462;27;20083;-77
2021/11/09 05:50:49;;;;;;;21.00;9.18;;;0.10;79.80;;;;;;5134682;27;20023;-77
2021/11/09 05:53:15;;;;;;;20.13;9.15;;;0.10;79.90;;;;;;5134525;27;20027;-78
2021/11/09 05:55:41;;;;;;;25.58;9.82;;;0.20;79.90;;;;;;5134610;27;20022;-78
2021/11/09 05:58:06;;;;;;;17.23;7.88;;;0.20;80.00;;;;;;5134730;27;20030;-74
2021/11/09 06:00:32;;;;;;;19.92;9.10;;;0.20;79.80;;;;;;5134231;27;20047;-78
2021/11/09 06:02:57;;;;;;;20.58;9.10;;;0.20;79.80;;;;;;5134424;27;20483;-78
2021/11/09 06:05:23;;;;;;;22.85;9.93;;;0.30;80.00;;;;;;5134159;27;20019;-78
2021/11/09 06:07:49;;;;;;;26.25;10.48;;;0.20;79.70;;;;;;5134543;27;20059;-78
2021/11/09 06:10:14;;;;;;;17.83;9.25;;;0.20;79.90;;;;;;5134169;27;20092;-75
2021/11/09 06:12:40;;;;;;;20.38;9.25;;;0.10;81.10;;;;;;5134078;27;20042;-75
2021/11/09 06:15:06;;;;;;;26.88;11.95;;;0.20;80.20;;;;;;5134181;27;20042;-76
2021/11/09 06:17:32;;;;;;;21.20;10.68;;;0.20;80.10;;;;;;5134100;27;20083;-74
2021/11/09 06:19:57;;;;;;;25.73;11.95;;;0.20;79.80;;;;;;5134013;27;20023;-76
2021/11/09 06:22:23;;;;;;;25.10;9.77;;;0.20;79.30;;;;;;5133670;27;20020;-77
2021/11/09 06:24:49;;;;;;;20.90;9.63;;;0.10;79.20;;;;;;5133854;27;20491;-76
2021/11/09 06:27:17;;;;;;;17.75;8.77;;;0.20;78.90;;;;;;5133546;27;20026;-76
2021/11/09 06:29:43;;;;;;;29.42;11.10;;;0.20;78.80;;;;;;5133754;27;20466;-75
2021/11/09 06:32:08;;;;;;;25.67;9.73;;;0.20;78.50;;;;;;5133586;27;20134;-76
2021/11/09 06:34:35;;;;;;;28.73;10.90;;;0.20;77.90;;;;;;5115141;27;20016;-76
2021/11/09 06:37:01;;;;;;;23.80;9.52;;;0.00;77.70;;;;;;5133668;27;20026;-75
2021/11/09 06:39:27;;;;;;;31.17;14.30;;;0.10;78.20;;;;;;5133636;27;20011;-75
2021/11/09 06:41:54;;;;;;;22.85;11.82;;;-0.10;77.80;;;;;;5133899;27;20403;-76
2021/11/09 06:44:20;;;;;;;25.48;10.88;;;-0.10;78.50;;;;;;5133543;27;20046;-76
2021/11/09 06:46:45;;;;;;;18.60;10.82;;;0.10;79.60;;;;;;5133751;27;20023;-76
2021/11/09 06:49:11;;;;;;;22.88;11.07;;;0.20;79.90;;;;;;5133742;27;20114;-76
2021/11/09 06:51:37;;;;;;;23.50;10.43;;;0.30;79.80;;;;;;5133568;27;20035;-77
2021/11/09 06:54:02;;;;;;;23.67;10.45;;;0.30;77.60;;;;;;5133555;27;20443;-75
2021/11/09 06:56:28;;;;;;;21.73;10.98;;;0.30;77.30;;;;;;5133542;27;20532;-76
2021/11/09 06:58:54;;;;;;;29.80;10.35;;;0.30;77.30;;;;;;5133646;27;20048;-76
2021/11/09 07:01:21;;;;;;;26.45;11.93;;;0.30;77.70;;;;;;5133647;27;20023;-78
2021/11/09 07:03:47;;;;;;;19.42;10.35;;;0.20;78.20;;;;;;5133505;27;20023;-77
2021/11/09 07:06:12;;;;;;;32.20;12.70;;;0.30;78.60;;;;;;5133784;27;20189;-78
2021/11/09 07:08:38;;;;;;;20.92;10.65;;;0.20;78.70;;;;;;5133302;27;20027;-75
2021/11/09 07:11:05;;;;;;;21.92;9.90;;;0.40;78.90;;;;;;5133321;27;20114;-76
2021/11/09 07:13:32;;;;;;;23.73;10.50;;;0.50;78.70;;;;;;5133317;27;20475;-77
2021/11/09 07:15:58;;;;;;;21.70;10.55;;;0.60;78.50;;;;;;5133206;27;20027;-78
2021/11/09 07:18:24;;;;;;;21.80;10.95;;;0.70;78.20;;;;;;5133407;27;20099;-76
2021/11/09 07:20:50;;;;;;;22.08;11.18;;;0.80;78.10;;;;;;5133414;27;20023;-78
2021/11/09 07:23:16;;;;;;;18.77;11.02;;;0.90;77.90;;;;;;5133341;27;20020;-79
2021/11/09 07:25:42;;;;;;;21.50;9.88;;;1.00;77.20;;;;;;5133626;27;20061;-79
2021/11/09 07:28:08;;;;;;;28.38;12.10;;;1.00;76.80;;;;;;5133520;27;20019;-77
2021/11/09 07:30:42;;;;;;;23.33;10.77;;;1.10;76.50;;;;;;5133251;27;20043;-77
2021/11/09 07:33:10;;;;;;;32.25;12.10;;;1.30;76.40;;;;;;5133373;27;20019;-79
2021/11/09 07:35:37;;;;;;;24.25;11.63;;;1.40;75.80;;;;;;5133215;27;20468;-78
2021/11/09 07:38:03;;;;;;;26.73;12.40;;;1.50;75.30;;;;;;5133403;27;20027;-76
2021/11/09 07:40:29;;;;;;;34.40;14.00;;;1.60;74.70;;;;;;5137126;27;20472;-75
2021/11/09 07:42:54;;;;;;;34.00;13.68;;;1.50;74.20;;;;;;5136943;27;20027;-76
2021/11/09 07:45:21;;;;;;;26.77;12.40;;;1.60;74.40;;;;;;5136844;27;20105;-76
2021/11/09 07:47:49;;;;;;;35.80;14.15;;;1.60;74.90;;;;;;5136822;27;20322;-77
2021/11/09 07:50:15;;;;;;;29.42;11.60;;;1.60;75.70;;;;;;5136583;27;20426;-79
2021/11/09 07:52:44;;;;;;;27.60;11.25;;;1.70;75.90;;;;;;5136678;27;20067;-79
2021/11/09 07:55:13;;;;;;;25.30;11.48;;;1.90;75.90;;;;;;5136766;27;20106;-79
2021/11/09 07:57:48;;;;;;;23.98;10.98;;;2.00;76.20;;;;;;5136585;27;20027;-78
2021/11/09 08:00:39;;;;;;;25.10;11.52;;;1.90;77.50;;;;;;5136612;27;20506;-79
2021/11/09 08:03:23;;;;;;;21.15;10.32;;;1.90;76.90;;;;;;5135971;27;20031;-78
2021/11/09 08:08:22;;;;;;;27.83;11.60;;;1.70;80.00;;;;;;5136315;27;20027;-79
2021/11/09 08:10:48;;;;;;;22.48;10.45;;;1.90;79.50;;;;;;5136401;27;20016;-78
2021/11/09 08:13:14;;;;;;;25.02;12.45;;;1.90;79.70;;;;;;5136195;27;20360;-79
2021/11/09 08:15:40;;;;;;;26.00;10.52;;;2.20;79.60;;;;;;5136402;27;20026;-78
2021/11/09 08:18:05;;;;;;;23.05;9.88;;;2.50;79.00;;;;;;5136222;27;20098;-79
2021/11/09 08:20:32;;;;;;;18.90;9.65;;;2.50;78.20;;;;;;5117882;27;20022;-78
2021/11/09 08:22:58;;;;;;;17.05;9.55;;;2.80;78.20;;;;;;5136305;27;20072;-77
2021/11/09 08:25:24;;;;;;;17.27;10.05;;;3.10;77.50;;;;;;5136166;27;20023;-78
2021/11/09 08:27:49;;;;;;;17.65;9.35;;;3.40;76.50;;;;;;5136057;27;20027;-76
2021/11/09 08:30:15;;;;;;;22.05;9.95;;;3.70;76.30;;;;;;5135794;27;20529;-77
2021/11/09 08:32:42;;;;;;;23.05;9.95;;;4.00;75.10;;;;;;5117475;27;20118;-79
2021/11/09 08:35:11;;;;;;;19.38;10.38;;;4.30;74.00;;;;;;5135886;27;20086;-76
2021/11/09 08:37:36;;;;;;;17.05;10.15;;;4.30;72.80;;;;;;5135714;27;20015;-77
2021/11/09 08:40:09;;;;;;;25.13;10.98;;;4.40;72.50;;;;;;5135625;27;20369;-75
2021/11/09 08:42:38;;;;;;;23.52;10.45;;;4.20;72.40;;;;;;5135612;27;20491;-78
2021/11/09 08:47:44;;;;;;;27.70;13.13;;;3.90;73.40;;;;;;5135961;27;20391;-78
2021/11/09 08:50:12;;;;;;;29.20;11.55;;;3.80;75.00;;;;;;5135452;27;20023;-78
2021/11/09 08:52:39;;;;;;;20.63;10.80;;;3.80;75.10;;;;;;5135588;27;20490;-77
2021/11/09 09:05:26;;;;;;;27.02;11.00;;;4.20;75.40;;;;;;5135060;27;20476;-79
2021/11/09 09:07:51;;;;;;;23.58;10.55;;;4.50;75.20;;;;;;5135315;27;20471;-78
2021/11/09 09:10:17;;;;;;;22.40;11.02;;;4.80;74.10;;;;;;5135229;27;20030;-78
2021/11/09 09:12:44;;;;;;;25.23;9.75;;;4.70;73.50;;;;;;5134935;27;20035;-77
2021/11/09 09:15:13;;;;;;;21.60;11.23;;;4.80;73.80;;;;;;5117044;27;20027;-77
2021/11/09 09:17:39;;;;;;;22.05;10.27;;;5.20;73.20;;;;;;5134633;27;20027;-78
2021/11/09 09:23:10;;;;;;;20.95;9.30;;;5.50;72.50;;;;;;5100072;27;20042;-76
2021/11/09 09:33:09;;;;;;;19.70;10.02;;;6.30;70.40;;;;;;5134676;27;20448;-77
2021/11/09 09:52:21;;;;;;;17.13;8.18;;;7.50;64.90;;;;;;5134557;27;20077;-77
2021/11/09 09:57:17;;;;;;;15.45;8.52;;;8.10;65.90;;;;;;5134439;27;20054;-78
2021/11/09 09:59:45;;;;;;;15.57;7.82;;;8.50;64.30;;;;;;5134236;27;20060;-75
2021/11/09 10:02:17;;;;;;;17.15;8.18;;;8.50;63.50;;;;;;5133938;27;20025;-76
2021/11/09 10:04:47;;;;;;;16.00;8.18;;;8.90;62.80;;;;;;5134182;27;20019;-79
2021/11/09 10:07:24;;;;;;;18.05;8.45;;;9.20;61.60;;;;;;5134022;27;20467;-80
2021/11/09 10:09:50;;;;;;;15.45;7.50;;;9.30;60.70;;;;;;5133967;27;20015;-80
2021/11/09 10:12:33;;;;;;;16.63;7.10;;;9.50;59.90;;;;;;5133873;27;20031;-79
2021/11/09 10:15:04;;;;;;;18.20;8.40;;;9.40;60.40;;;;;;5134149;27;20047;-80
2021/11/09 10:17:30;;;;;;;14.27;6.78;;;10.00;59.80;;;;;;5133935;27;20027;-76
2021/11/09 10:19:58;;;;;;;16.00;7.30;;;10.40;58.10;;;;;;5134115;27;20019;-79
2021/11/09 10:22:28;;;;;;;13.25;6.65;;;10.50;57.30;;;;;;5133847;27;20026;-80
2021/11/09 10:25:06;;;;;;;16.48;8.38;;;10.40;56.70;;;;;;5133865;27;20054;-79
2021/11/09 10:27:34;;;;;;;19.63;8.27;;;10.10;57.80;;;;;;5133949;27;20475;-80
2021/11/09 10:30:09;;;;;;;17.92;7.55;;;9.50;60.40;;;;;;5133895;27;20027;-80
2021/11/09 10:32:35;;;;;;;13.98;7.03;;;10.00;60.10;;;;;;5133934;27;20559;-80
2021/11/09 10:35:04;;;;;;;11.02;4.32;;;10.30;57.80;;;;;;5134169;27;20027;-79
2021/11/09 10:37:33;;;;;;;13.13;3.95;;;10.70;55.80;;;;;;5133660;27;20027;-78
2021/11/09 10:40:05;;;;;;;8.38;3.65;;;11.20;52.10;;;;;;5133748;27;20015;-80
2021/11/09 10:42:36;;;;;;;12.02;3.85;;;11.60;49.90;;;;;;5133783;27;20025;-79
2021/11/09 10:45:09;;;;;;;9.73;3.28;;;12.10;48.80;;;;;;5133798;27;20023;-80
2021/11/09 10:47:41;;;;;;;7.63;2.72;;;12.60;47.10;;;;;;5133912;27;20019;-80
2021/11/09 10:50:23;;;;;;;11.68;3.22;;;12.90;44.60;;;;;;5133667;27;20076;-80
2021/11/09 10:53:00;;;;;;;6.43;2.38;;;13.20;43.30;;;;;;5133302;27;20056;-81
2021/11/09 10:56:14;;;;;;;7.18;2.90;;;13.30;41.60;;;;;;5133349;27;20012;-80
2021/11/09 10:58:40;;;;;;;11.30;2.85;;;13.50;41.50;;;;;;5122226;27;20370;-80
2021/11/09 11:03:55;;;;;;;9.82;3.95;;;14.20;40.20;;;;;;5133445;27;20019;-80
2021/11/09 11:06:38;;;;;;;7.75;2.70;;;14.50;39.20;;;;;;5133332;27;20471;-79
2021/11/09 11:09:10;;;;;;;7.82;2.58;;;14.80;37.90;;;;;;5133382;27;20046;-81
2021/11/09 11:11:38;;;;;;;6.55;2.13;;;15.10;37.30;;;;;;5132934;27;20024;-80
2021/11/09 11:14:10;;;;;;;8.85;2.40;;;15.30;36.40;;;;;;5135031;27;20038;-79
2021/11/09 11:16:46;;;;;;;7.20;2.08;;;15.50;36.20;;;;;;5137217;27;20098;-79
2021/11/09 11:19:14;;;;;;;6.38;2.05;;;15.80;36.00;;;;;;5137369;27;20027;-79
2021/11/09 11:21:41;;;;;;;6.85;2.22;;;15.70;33.20;;;;;;5137221;27;20052;-81
2021/11/09 11:24:09;;;;;;;8.02;2.30;;;15.70;33.30;;;;;;5137316;27;20023;-79
2021/11/09 11:26:36;;;;;;;6.50;2.38;;;15.50;32.80;;;;;;5137083;27;20031;-79
2021/11/09 11:29:04;;;;;;;4.30;1.98;;;15.50;32.80;;;;;;5137023;27;20022;-80
2021/11/09 11:31:30;;;;;;;6.10;1.98;;;15.40;32.70;;;;;;5136795;27;20074;-79
2021/11/09 11:33:56;;;;;;;6.55;2.20;;;15.50;32.70;;;;;;5137142;27;20054;-81
2021/11/09 11:36:22;;;;;;;7.65;2.00;;;15.60;32.60;;;;;;5136779;27;20025;-81
2021/11/09 11:38:52;;;;;;;5.88;1.73;;;15.80;32.80;;;;;;5136948;27;20030;-81
2021/11/09 11:41:19;;;;;;;8.10;2.55;;;16.00;32.10;;;;;;5136730;27;20479;-82
2021/11/09 11:43:47;;;;;;;6.05;2.30;;;16.20;32.40;;;;;;5118373;27;20034;-81
2021/11/09 11:46:36;;;;;;;6.30;2.10;;;16.40;31.30;;;;;;5136792;27;20086;-81
2021/11/09 11:49:13;;;;;;;6.72;1.85;;;16.70;31.60;;;;;;5136447;27;20532;-81
2021/11/09 11:51:45;;;;;;;6.43;1.90;;;17.10;31.40;;;;;;5136253;27;20112;-81
2021/11/09 11:54:12;;;;;;;5.57;2.05;;;17.40;30.70;;;;;;5136412;27;20027;-80
2021/11/09 11:56:44;;;;;;;6.15;1.77;;;17.60;29.90;;;;;;5136191;27;20109;-81
2021/11/09 11:59:21;;;;;;;7.97;2.20;;;17.90;29.10;;;;;;5135892;27;20027;-81
2021/11/09 12:01:47;;;;;;;7.15;2.05;;;18.10;28.70;;;;;;5136050;27;20099;-81
2021/11/09 12:04:36;;;;;;;5.25;1.88;;;18.30;28.20;;;;;;5135789;27;20031;-81
2021/11/09 12:07:15;;;;;;;6.45;2.03;;;18.50;27.40;;;;;;5136203;27;20466;-80
2021/11/09 12:09:43;;;;;;;5.45;2.00;;;18.80;26.90;;;;;;5136383;27;20019;-80
2021/11/09 12:12:17;;;;;;;7.38;1.85;;;19.00;26.00;;;;;;5117627;27;20436;-81
2021/11/09 12:14:57;;;;;;;5.55;1.70;;;19.30;26.00;;;;;;5135901;27;20034;-79
2021/11/09 12:17:41;;;;;;;3.85;1.88;;;19.50;24.90;;;;;;5136040;27;20082;-79
2021/11/09 12:20:14;;;;;;;5.95;2.05;;;19.80;24.10;;;;;;5136052;27;20042;-80
2021/11/09 12:22:48;;;;;;;4.40;1.63;;;20.20;23.60;;;;;;5135778;27;20026;-77
2021/11/09 12:25:35;;;;;;;4.38;2.00;;;20.70;23.90;;;;;;5135970;27;20488;-77
2021/11/09 12:28:05;;;;;;;5.95;2.30;;;21.30;22.10;;;;;;5136497;27;20491;-76
2021/11/09 12:30:30;;;;;;;5.70;2.13;;;22.00;20.50;;;;;;5117245;27;20364;-78
2021/11/09 12:33:16;;;;;;;4.32;1.85;;;22.70;19.60;;;;;;5135712;27;20046;-76
2021/11/09 12:36:11;;;;;;;4.80;2.25;;;23.50;18.50;;;;;;5134987;27;20027;-77
2021/11/09 12:38:49;;;;;;;4.10;2.00;;;24.20;17.50;;;;;;5137856;27;20054;-76
2021/11/09 12:41:29;;;;;;;5.18;2.03;;;24.80;16.70;;;;;;5139602;27;20111;-75
2021/11/09 12:44:02;;;;;;;5.68;1.75;;;25.30;16.20;;;;;;5140837;27;20015;-76
2021/11/09 12:46:37;;;;;;;4.70;1.70;;;26.30;15.30;;;;;;5137175;27;20015;-75
2021/11/09 12:49:09;;;;;;;6.45;1.90;;;27.10;14.30;;;;;;5137947;27;20031;-78
2021/11/09 12:51:42;;;;;;;4.93;1.95;;;28.10;13.30;;;;;;5137711;27;20189;-80
2021/11/09 12:54:10;;;;;;;3.70;2.00;;;28.60;12.30;;;;;;5135963;27;20084;-78
2021/11/09 12:56:38;;;;;;;5.20;2.25;;;29.30;12.00;;;;;;5136625;27;20027;-81
2021/11/09 13:05:01;;;;;;;3.72;2.30;;;31.40;10.10;;;;;;5135649;27;20084;-80
2021/11/09 13:10:01;;;;;;;4.10;2.10;;;33.00;9.10;;;;;;5149689;27;20029;-80
2021/11/09 13:12:31;;;;;;;5.47;2.17;;;33.40;8.30;;;;;;5161108;27;20032;-79
2021/11/09 13:15:04;;;;;;;5.75;2.20;;;33.70;7.70;;;;;;5160679;27;20007;-79
2021/11/09 13:17:54;;;;;;;6.13;2.50;;;34.10;7.50;;;;;;5160546;27;20074;-76
2021/11/09 13:23:16;;;;;;;4.45;2.58;;;34.80;6.80;;;;;;5139111;27;20068;-78
2021/11/09 13:25:43;;;;;;;4.20;2.42;;;35.30;6.70;;;;;;5137029;27;20110;-77
2021/11/09 13:28:12;;;;;;;5.07;2.92;;;35.60;6.40;;;;;;5136649;27;20030;-77
2021/11/09 13:30:38;;;;;;;4.95;2.47;;;35.70;5.90;;;;;;5136793;27;20546;-78
2021/11/09 13:33:04;;;;;;;5.50;2.45;;;35.70;5.50;;;;;;5135462;27;20031;-76
2021/11/09 13:35:37;;;;;;;3.80;2.10;;;35.70;5.50;;;;;;5134451;27;20038;-77
2021/11/09 13:38:13;;;;;;;4.95;2.22;;;36.20;5.90;;;;;;5116299;27;20035;-77
2021/11/09 13:41:01;;;;;;;3.10;2.00;;;36.50;5.50;;;;;;5116430;27;20019;-77
2021/11/09 13:43:31;;;;;;;5.50;2.20;;;36.80;5.10;;;;;;5134499;27;20104;-78
2021/11/09 13:46:10;;;;;;;5.25;2.08;;;37.20;5.10;;;;;;5134469;27;20079;-77
2021/11/09 13:48:39;;;;;;;3.72;2.17;;;37.50;4.80;;;;;;5134330;27;20019;-78
2021/11/09 13:51:07;;;;;;;5.65;2.58;;;37.60;4.40;;;;;;5134172;27;20053;-77
2021/11/09 13:53:38;;;;;;;5.43;2.58;;;38.00;4.70;;;;;;5134453;27;20230;-80
2021/11/09 13:56:05;;;;;;;4.05;2.30;;;38.30;4.60;;;;;;5134605;27;20030;-80
2021/11/09 13:58:31;;;;;;;3.50;2.03;;;38.40;4.10;;;;;;5134452;27;20015;-81
2021/11/09 14:01:01;;;;;;;4.78;2.55;;;38.40;4.10;;;;;;5134347;27;20464;-82
2021/11/09 14:03:38;;;;;;;5.15;2.30;;;38.30;4.10;;;;;;5134475;27;20073;-81
2021/11/09 14:12:20;;;;;;;5.13;2.30;;;38.40;4.10;;;;;;5120766;27;20306;-76
2021/11/09 14:14:57;;;;;;;4.25;2.47;;;38.40;4.20;;;;;;5116628;27;20437;-77
2021/11/09 14:17:34;;;;;;;6.65;2.75;;;38.60;3.90;;;;;;5134534;27;20046;-81
2021/11/09 14:20:13;;;;;;;4.60;2.47;;;38.50;3.90;;;;;;5135164;27;20030;-81
2021/11/09 14:22:40;;;;;;;4.45;1.90;;;38.40;4.00;;;;;;5135393;27;20035;-81
2021/11/09 14:25:08;;;;;;;6.55;2.08;;;38.20;4.10;;;;;;5137055;27;20023;-77
2021/11/09 14:27:39;;;;;;;4.47;2.17;;;37.70;3.90;;;;;;5144680;27;20027;-81
2021/11/09 14:30:07;;;;;;;5.47;2.70;;;37.60;4.20;;;;;;5134156;27;20383;-76
2021/11/09 14:32:37;;;;;;;4.30;2.05;;;37.50;4.20;;;;;;5133623;27;20058;-81
2021/11/09 14:35:14;;;;;;;3.65;2.20;;;37.40;4.30;;;;;;5133922;27;20123;-81
2021/11/09 14:37:44;;;;;;;4.90;2.10;;;37.20;4.40;;;;;;5134008;27;20038;-81
2021/11/09 14:40:12;;;;;;;4.88;2.25;;;36.60;4.30;;;;;;5133925;27;20020;-79
2021/11/09 14:48:10;;;;;;;4.47;2.33;;;35.60;5.00;;;;;;5135518;27;20023;-82
2021/11/09 14:51:14;;;;;;;5.90;2.60;;;35.10;5.30;;;;;;5138181;27;20660;-82
2021/11/09 14:53:56;;;;;;;3.03;2.17;;;34.90;5.10;;;;;;5137895;27;20027;-77
2021/11/09 14:56:43;;;;;;;5.38;2.20;;;34.60;5.50;;;;;;5137707;27;20015;-78
2021/11/09 14:59:16;;;;;;;4.75;2.28;;;34.10;5.90;;;;;;5137392;27;20031;-76
2021/11/09 15:01:59;;;;;;;8.30;2.40;;;33.70;6.00;;;;;;5137768;27;20039;-75
2021/11/09 15:04:41;;;;;;;7.53;2.08;;;33.40;6.50;;;;;;5137657;27;20019;-76
2021/11/09 15:10:10;;;;;;;8.40;2.88;;;31.60;7.20;;;;;;5137541;27;20054;-76
2021/11/09 15:12:56;;;;;;;7.10;2.65;;;30.10;8.10;;;;;;5137480;27;20026;-81
2021/11/09 15:27:43;;;;;;;5.78;2.88;;;24.90;13.50;;;;;;5054034;28;20102;-79
2021/11/09 15:29:44;;;;;;;5.78;2.58;;;23.20;14.80;;;;;;5097137;27;20027;-77
2021/11/09 15:32:12;;;;;;;5.40;2.88;;;21.00;16.90;;;;;;5136920;27;20066;-77
2021/11/09 15:37:32;;;;;;;8.45;3.22;;;17.00;24.10;;;;;;5137143;27;20068;-76
2021/11/09 15:39:59;;;;;;;8.50;4.10;;;15.70;28.50;;;;;;5137072;27;20080;-76
2021/11/09 15:42:29;;;;;;;6.75;3.65;;;14.50;32.50;;;;;;5136816;27;20451;-75
2021/11/09 15:44:55;;;;;;;8.40;3.50;;;13.70;35.60;;;;;;5136999;27;20026;-77
2021/11/09 15:47:22;;;;;;;8.73;2.97;;;13.10;37.50;;;;;;5136661;27;20099;-76
2021/11/09 15:49:48;;;;;;;9.70;4.07;;;12.80;38.60;;;;;;5136585;27;20019;-76